createdAt,value
2018-02-10T00:02:11.167Z,132.43
2018-02-10T00:04:39.409Z,140.43
2018-02-10T00:07:06.970Z,138.07
2018-02-10T00:09:34.439Z,126.65
2018-02-10T00:12:01.910Z,138.80
2018-02-10T00:14:29.441Z,132.73
2018-02-10T00:16:56.993Z,156.43
2018-02-10T00:19:24.469Z,156.45
2018-02-10T00:21:52.834Z,128.30
2018-02-10T00:24:20.394Z,133.35
2018-02-10T00:26:47.857Z,145.50
2018-02-10T00:29:15.332Z,138.30
2018-02-10T00:31:43.575Z,135.77
2018-02-10T00:34:11.042Z,136.95
2018-02-10T00:36:38.605Z,123.90
2018-02-10T00:39:06.976Z,169.60
2018-02-10T00:41:34.434Z,139.45
2018-02-10T00:44:01.908Z,131.63
2018-02-10T00:46:30.180Z,147.13
2018-02-10T00:48:57.645Z,143.15
2018-02-10T00:51:26.009Z,151.07
2018-02-10T00:53:53.561Z,146.30
2018-02-10T00:56:21.114Z,148.62
2018-02-10T00:58:48.673Z,140.80
2018-02-10T01:01:16.141Z,140.80
2018-02-10T01:03:43.609Z,139.35
2018-02-10T01:06:11.850Z,140.98
2018-02-10T01:08:39.410Z,142.85
2018-02-10T01:11:06.885Z,156.25
2018-02-10T01:13:34.453Z,142.75
2018-02-10T01:16:02.704Z,152.05
2018-02-10T01:18:30.188Z,147.50
2018-02-10T01:20:58.456Z,137.10
2018-02-10T01:23:25.918Z,142.55
2018-02-10T01:25:53.384Z,145.23
2018-02-10T01:28:21.620Z,136.18
2018-02-10T01:30:49.108Z,139.37
2018-02-10T01:33:17.332Z,150.12
2018-02-10T01:35:44.929Z,157.27
2018-02-10T01:38:12.393Z,152.85
2018-02-10T01:40:40.656Z,152.02
2018-02-10T01:43:08.132Z,143.98
2018-02-10T01:45:36.352Z,148.27
2018-02-10T01:48:03.856Z,142.50
2018-02-10T01:50:31.327Z,144.80
2018-02-10T01:52:59.563Z,148.05
2018-02-10T01:55:27.037Z,140.20
2018-02-10T01:57:54.507Z,150.38
2018-02-10T02:00:22.093Z,146.07
2018-02-10T02:02:49.551Z,140.68
2018-02-10T02:05:17.076Z,153.50
2018-02-10T02:07:44.540Z,136.85
2018-02-10T02:10:12.787Z,145.27
2018-02-10T02:12:40.254Z,155.70
2018-02-10T02:15:09.240Z,146.15
2018-02-10T02:17:36.754Z,139.05
2018-02-10T02:20:04.186Z,149.70
2018-02-10T02:22:32.427Z,144.23
2018-02-10T02:24:59.987Z,146.45
2018-02-10T02:27:27.547Z,158.70
2018-02-10T02:29:55.113Z,140.60
2018-02-10T02:32:22.580Z,130.57
2018-02-10T02:34:50.081Z,134.80
2018-02-10T02:37:17.552Z,141.98
2018-02-10T02:39:45.032Z,148.95
2018-02-10T02:42:12.500Z,156.63
2018-02-10T02:44:39.974Z,152.77
2018-02-10T02:47:08.212Z,149.93
2018-02-10T02:49:35.683Z,149.20
2018-02-10T02:52:03.148Z,129.90
2018-02-10T02:54:30.702Z,144.70
2018-02-10T02:56:59.676Z,145.25
2018-02-10T02:59:27.139Z,141.20
2018-02-10T03:01:54.704Z,140.45
2018-02-10T03:04:22.172Z,149.07
2018-02-10T03:06:49.639Z,150.87
2018-02-10T03:09:18.072Z,144.48
2018-02-10T03:11:45.544Z,151.63
2018-02-10T03:14:13.012Z,148.18
2018-02-10T03:16:40.484Z,141.75
2018-02-10T03:19:08.734Z,138.65
2018-02-10T03:21:36.196Z,149.15
2018-02-10T03:24:03.656Z,151.40
2018-02-10T03:26:31.217Z,143.23
2018-02-10T03:28:58.704Z,145.80
2018-02-10T03:31:26.935Z,129.25
2018-02-10T03:33:54.392Z,156.52
2018-02-10T03:36:21.860Z,149.07
2018-02-10T03:38:49.319Z,149.23
2018-02-10T03:41:18.309Z,132.02
2018-02-10T03:43:45.853Z,149.50
2018-02-10T03:46:13.308Z,152.50
2018-02-10T03:48:40.895Z,149.25
2018-02-10T03:51:08.448Z,148.13
2018-02-10T03:53:35.924Z,139.45
2018-02-10T03:56:04.192Z,141.77
2018-02-10T03:58:31.659Z,147.35
2018-02-10T04:00:59.887Z,136.62
2018-02-10T04:03:27.352Z,149.43
2018-02-10T04:05:54.816Z,162.68
2018-02-10T04:08:22.384Z,155.87
2018-02-10T04:10:49.849Z,148.30
2018-02-10T04:13:17.325Z,153.32
2018-02-10T04:15:45.549Z,146.93
2018-02-10T04:18:13.125Z,137.07
2018-02-10T04:20:40.597Z,140.73
2018-02-10T04:23:08.055Z,145.95
2018-02-10T04:25:36.374Z,142.35
2018-02-10T04:28:03.840Z,151.73
2018-02-10T04:30:31.339Z,144.95
2018-02-10T04:32:58.988Z,151.60
2018-02-10T04:35:26.465Z,146.87
2018-02-10T04:37:54.007Z,161.40
2018-02-10T04:40:21.479Z,134.65
2018-02-10T04:42:48.940Z,138.32
2018-02-10T04:45:17.179Z,157.02
2018-02-10T04:47:44.655Z,162.52
2018-02-10T04:50:12.142Z,150.00
2018-02-10T04:52:39.595Z,151.68
2018-02-10T04:55:07.902Z,153.02
2018-02-10T04:57:35.370Z,151.35
2018-02-10T05:00:02.845Z,151.95
2018-02-10T05:02:30.311Z,139.70
2018-02-10T05:04:57.800Z,132.32
2018-02-10T05:07:26.035Z,145.68
2018-02-10T05:09:53.508Z,166.68
2018-02-10T05:12:20.965Z,129.60
2018-02-10T05:14:48.532Z,157.57
2018-02-10T05:17:16.021Z,136.30
2018-02-10T05:19:43.485Z,143.32
2018-02-10T05:22:10.945Z,139.27
2018-02-10T05:24:38.460Z,141.90
2018-02-10T05:27:05.927Z,131.55
2018-02-10T05:29:34.158Z,141.32
2018-02-10T05:32:01.628Z,139.93
2018-02-10T05:34:29.097Z,161.60
2018-02-10T05:36:56.565Z,151.68
2018-02-10T05:39:24.024Z,149.23
2018-02-10T05:41:52.259Z,144.30
2018-02-10T05:44:19.841Z,153.87
2018-02-10T05:46:47.312Z,141.45
2018-02-10T05:49:15.590Z,143.60
2018-02-10T05:51:43.135Z,136.12
2018-02-10T05:54:10.642Z,153.93
2018-02-10T05:56:38.110Z,150.18
2018-02-10T05:59:05.609Z,131.98
2018-02-10T06:01:33.080Z,137.43
2018-02-10T06:04:01.360Z,142.27
2018-02-10T06:06:28.991Z,145.90
2018-02-10T06:08:56.559Z,142.68
2018-02-10T06:11:24.121Z,135.20
2018-02-10T06:13:51.676Z,143.60
2018-02-10T06:16:19.137Z,146.48
2018-02-10T06:18:46.624Z,139.55
2018-02-10T06:21:14.101Z,130.40
2018-02-10T06:23:41.613Z,148.55
2018-02-10T06:26:09.118Z,121.72
2018-02-10T06:28:36.607Z,150.05
2018-02-10T06:31:04.088Z,154.15
2018-02-10T06:33:31.644Z,139.25
2018-02-10T06:35:59.112Z,152.43
2018-02-10T06:38:27.337Z,153.15
2018-02-10T06:40:54.808Z,120.85
2018-02-10T06:43:22.287Z,150.18
2018-02-10T06:45:49.750Z,135.70
2018-02-10T06:48:17.203Z,141.30
2018-02-10T06:50:44.685Z,147.85
2018-02-10T06:53:12.931Z,149.18
2018-02-10T06:55:40.497Z,129.20
2018-02-10T06:58:07.957Z,132.23
2018-02-10T07:00:36.205Z,133.15
2018-02-10T07:03:03.665Z,132.25
2018-02-10T07:05:31.245Z,145.05
2018-02-10T07:07:58.702Z,134.63
2018-02-10T07:10:26.264Z,148.45
2018-02-10T07:12:53.816Z,144.80
2018-02-10T07:15:21.325Z,147.35
2018-02-10T07:17:48.790Z,139.35
2018-02-10T07:20:16.265Z,138.65
2018-02-10T07:22:43.736Z,140.65
2018-02-10T07:25:11.200Z,144.80
2018-02-10T07:27:38.765Z,128.07
2018-02-10T07:30:06.227Z,136.65
2018-02-10T07:32:34.479Z,132.30
2018-02-10T07:35:01.952Z,153.15
2018-02-10T07:37:29.525Z,133.75
2018-02-10T07:39:57.121Z,141.52
2018-02-10T07:42:24.688Z,150.48
2018-02-10T07:44:52.180Z,137.50
2018-02-10T07:47:19.696Z,146.45
2018-02-10T07:49:47.161Z,134.07
2018-02-10T07:52:14.625Z,134.73
2018-02-10T07:54:42.116Z,130.65
2018-02-10T07:57:09.643Z,126.93
2018-02-10T07:59:37.118Z,132.87
2018-02-10T08:02:04.587Z,130.85
2018-02-10T08:04:32.142Z,124.18
2018-02-10T08:06:59.602Z,136.05
2018-02-10T08:09:27.165Z,128.62
2018-02-10T08:11:54.628Z,119.07
2018-02-10T08:14:22.860Z,131.75
2018-02-10T08:16:50.340Z,139.00
2018-02-10T08:19:17.997Z,143.57
2018-02-10T08:21:45.460Z,120.22
2018-02-10T08:24:13.016Z,132.98
2018-02-10T08:26:40.567Z,129.60
2018-02-10T08:29:08.024Z,144.62
2018-02-10T08:31:35.493Z,127.15
2018-02-10T08:34:02.956Z,146.43
2018-02-10T08:36:30.425Z,136.15
2018-02-10T08:38:58.780Z,128.98
2018-02-10T08:41:26.243Z,143.52
2018-02-10T08:43:53.725Z,132.00
2018-02-10T08:46:21.970Z,137.88
2018-02-10T08:48:49.526Z,159.40
2018-02-10T08:51:16.987Z,114.50
2018-02-10T08:53:44.468Z,131.55
2018-02-10T08:56:12.716Z,126.05
2018-02-10T08:58:40.276Z,142.25
2018-02-10T09:01:07.943Z,137.75
2018-02-10T09:03:35.500Z,138.23
2018-02-10T09:06:02.960Z,140.32
2018-02-10T09:08:30.459Z,139.00
2018-02-10T09:10:57.968Z,135.77
2018-02-10T09:13:25.431Z,125.00
2018-02-10T09:15:53.605Z,131.23
2018-02-10T09:18:21.075Z,137.43
2018-02-10T09:20:48.545Z,144.70
2018-02-10T09:23:16.896Z,135.93
2018-02-10T09:25:45.373Z,149.85
2018-02-10T09:28:12.850Z,127.25
2018-02-10T09:30:41.078Z,156.32
2018-02-10T09:33:08.549Z,133.68
2018-02-10T09:35:36.028Z,132.35
2018-02-10T09:38:03.881Z,128.52
2018-02-10T09:40:31.349Z,130.07
2018-02-10T09:42:59.605Z,140.18
2018-02-10T09:45:27.109Z,139.02
2018-02-10T09:47:54.581Z,152.18
2018-02-10T09:50:22.094Z,139.18
2018-02-10T09:52:49.561Z,141.40
2018-02-10T09:55:17.798Z,149.45
2018-02-10T09:57:45.268Z,135.10
2018-02-10T10:00:13.265Z,135.77
2018-02-10T10:02:41.505Z,145.35
2018-02-10T10:05:08.976Z,126.85
2018-02-10T10:07:36.439Z,134.02
2018-02-10T10:10:04.685Z,131.95
2018-02-10T10:12:32.169Z,147.80
2018-02-10T10:14:59.663Z,134.80
2018-02-10T10:17:27.149Z,142.52
2018-02-10T10:19:54.621Z,131.80
2018-02-10T10:22:22.076Z,132.52
2018-02-10T10:24:49.581Z,136.23
2018-02-10T10:27:17.164Z,123.93
2018-02-10T10:29:44.620Z,141.65
2018-02-10T10:32:12.129Z,136.27
2018-02-10T10:34:39.676Z,130.32
2018-02-10T10:37:07.147Z,130.27
2018-02-10T10:39:34.704Z,143.23
2018-02-10T10:42:02.186Z,133.65
2018-02-10T10:44:30.404Z,112.07
2018-02-10T10:46:57.883Z,143.37
2018-02-10T10:49:25.446Z,127.97
2018-02-10T10:51:52.912Z,110.40
2018-02-10T10:54:20.409Z,122.07
2018-02-10T10:56:48.642Z,97.55
2018-02-10T10:59:16.869Z,113.12
2018-02-10T11:01:44.375Z,121.00
2018-02-10T11:04:11.856Z,121.35
2018-02-10T11:06:40.117Z,112.35
2018-02-10T11:09:08.348Z,99.87
2018-02-10T11:11:35.826Z,117.60
2018-02-10T11:14:03.299Z,115.97
2018-02-10T11:16:30.763Z,114.65
2018-02-10T11:18:59.004Z,107.20
2018-02-10T11:21:26.532Z,119.40
2018-02-10T11:23:54.038Z,108.95
2018-02-10T11:26:21.506Z,108.40
2018-02-10T11:28:49.106Z,96.72
2018-02-10T11:31:16.569Z,103.95
2018-02-10T11:33:44.036Z,95.60
2018-02-10T11:36:11.512Z,99.15
2018-02-10T11:38:38.986Z,101.55
2018-02-10T11:41:06.508Z,99.03
2018-02-10T11:43:33.992Z,94.80
2018-02-10T11:46:01.459Z,96.12
2018-02-10T11:48:29.007Z,104.35
2018-02-10T11:50:56.533Z,94.65
2018-02-10T11:53:24.027Z,111.45
2018-02-10T11:55:51.584Z,103.90
2018-02-10T11:58:19.064Z,94.85
2018-02-10T12:00:46.604Z,90.60
2018-02-10T12:03:14.110Z,81.05
2018-02-10T12:05:41.715Z,92.93
2018-02-10T12:08:09.168Z,87.97
2018-02-10T12:10:37.408Z,87.50
2018-02-10T12:13:04.912Z,84.55
2018-02-10T12:15:32.373Z,70.65
2018-02-10T12:18:00.096Z,83.65
2018-02-10T12:20:27.560Z,79.22
2018-02-10T12:22:55.024Z,75.50
2018-02-10T12:25:22.520Z,80.22
2018-02-10T12:27:50.760Z,74.82
2018-02-10T12:30:18.233Z,86.07
2018-02-10T12:32:47.226Z,76.30
2018-02-10T12:35:14.710Z,86.12
2018-02-10T12:37:42.932Z,86.12
2018-02-10T12:40:10.395Z,89.95
2018-02-10T12:42:37.869Z,97.80
2018-02-10T12:45:05.434Z,96.15
2018-02-10T12:47:36.988Z,76.50
2018-02-10T12:50:04.545Z,82.32
2018-02-10T12:52:32.770Z,81.93
2018-02-10T12:55:00.229Z,83.55
2018-02-10T12:57:27.688Z,79.82
2018-02-10T12:59:55.158Z,77.22
2018-02-10T13:02:25.480Z,78.53
2018-02-10T13:04:53.020Z,86.30
2018-02-10T13:07:20.624Z,74.90
2018-02-10T13:09:48.171Z,70.20
2018-02-10T13:12:15.684Z,93.40
2018-02-10T13:14:43.243Z,84.35
2018-02-10T13:17:11.448Z,85.22
2018-02-10T13:19:38.933Z,86.65
2018-02-10T13:22:06.479Z,91.80
2018-02-10T13:24:33.958Z,83.12
2018-02-10T13:27:02.045Z,80.80
2018-02-10T13:29:30.269Z,78.10
2018-02-10T13:31:57.731Z,82.22
2018-02-10T13:34:25.316Z,80.90
2018-02-10T13:36:52.777Z,68.32
2018-02-10T13:39:20.251Z,91.47
2018-02-10T13:41:48.480Z,86.57
2018-02-10T13:44:15.939Z,79.78
2018-02-10T13:46:43.416Z,77.80
2018-02-10T13:49:10.968Z,88.65
2018-02-10T13:51:38.425Z,87.55
2018-02-10T13:54:05.888Z,96.80
2018-02-10T13:56:33.415Z,89.35
2018-02-10T13:59:00.909Z,94.70
2018-02-10T14:01:28.456Z,91.45
2018-02-10T14:03:55.940Z,97.10
2018-02-10T14:06:24.182Z,97.00
2018-02-10T14:08:51.704Z,93.85
2018-02-10T14:11:19.172Z,99.90
2018-02-10T14:13:46.635Z,98.18
2018-02-10T14:16:14.204Z,94.30
2018-02-10T14:18:41.652Z,96.43
2018-02-10T14:21:09.228Z,109.45
2018-02-10T14:23:36.696Z,105.55
2018-02-10T14:26:04.185Z,109.28
2018-02-10T14:28:31.707Z,88.28
2018-02-10T14:30:59.178Z,102.47
2018-02-10T14:33:26.631Z,102.57
2018-02-10T14:35:54.092Z,99.25
2018-02-10T14:38:22.325Z,95.60
2018-02-10T14:40:49.793Z,90.07
2018-02-10T14:43:17.258Z,98.20
2018-02-10T14:45:44.716Z,97.32
2018-02-10T14:48:12.176Z,89.68
2018-02-10T14:50:40.101Z,105.70
2018-02-10T14:53:07.605Z,100.85
2018-02-10T14:55:35.072Z,99.22
2018-02-10T14:58:03.318Z,106.32
2018-02-10T15:00:30.889Z,103.55
2018-02-10T15:02:58.362Z,104.97
2018-02-10T15:05:25.911Z,105.87
2018-02-10T15:07:54.171Z,96.28
2018-02-10T15:10:21.632Z,110.82
2018-02-10T15:12:49.098Z,95.95
2018-02-10T15:15:16.575Z,89.70
2018-02-10T15:17:44.814Z,98.47
2018-02-10T15:20:12.296Z,94.93
2018-02-10T15:22:39.760Z,90.38
2018-02-10T15:25:07.989Z,92.10
2018-02-10T15:27:35.456Z,87.82
2018-02-10T15:30:14.740Z,105.65
2018-02-10T15:32:54.952Z,101.70
2018-02-10T15:35:22.416Z,88.93
2018-02-10T15:37:49.909Z,97.37
2018-02-10T15:40:18.147Z,92.57
2018-02-10T15:42:45.603Z,91.07
2018-02-10T15:45:13.070Z,95.93
2018-02-10T15:47:40.532Z,104.87
2018-02-10T15:50:08.079Z,103.62
2018-02-10T15:52:35.597Z,92.55
2018-02-10T15:55:03.060Z,97.95
2018-02-10T15:57:30.543Z,95.45
2018-02-10T15:59:58.008Z,92.80
2018-02-10T16:02:25.472Z,96.15
2018-02-10T16:04:52.935Z,93.60
2018-02-10T16:07:20.475Z,89.55
2018-02-10T16:09:47.948Z,105.40
2018-02-10T16:12:15.407Z,103.35
2018-02-10T16:14:43.660Z,110.97
2018-02-10T16:17:11.112Z,91.60
2018-02-10T16:19:38.588Z,89.97
2018-02-10T16:22:06.048Z,99.20
2018-02-10T16:24:33.595Z,92.40
2018-02-10T16:27:01.059Z,92.97
2018-02-10T16:32:02.616Z,94.25
2018-02-10T16:34:30.183Z,98.32
2018-02-10T16:36:57.739Z,102.15
2018-02-10T16:39:25.200Z,101.60
2018-02-10T16:41:52.664Z,94.90
2018-02-10T16:44:20.212Z,92.22
2018-02-10T16:46:47.832Z,96.07
2018-02-10T16:49:15.291Z,94.55
2018-02-10T16:51:42.780Z,94.97
2018-02-10T16:54:10.236Z,96.75
2018-02-10T16:56:37.710Z,86.32
2018-02-10T16:59:05.190Z,95.95
2018-02-10T17:01:33.412Z,92.57
2018-02-10T17:04:00.897Z,101.15
2018-02-10T17:06:28.360Z,88.03
2018-02-10T17:08:56.012Z,84.43
2018-02-10T17:11:23.524Z,79.43
2018-02-10T17:13:50.992Z,83.10
2018-02-10T17:16:18.447Z,87.72
2018-02-10T17:18:45.924Z,91.95
2018-02-10T17:21:13.381Z,90.82
2018-02-10T17:23:40.851Z,95.78
2018-02-10T17:26:08.418Z,85.50
2018-02-10T17:28:35.925Z,86.22
2018-02-10T17:31:03.384Z,86.32
2018-02-10T17:33:30.885Z,92.22
2018-02-10T17:35:58.439Z,86.72
2018-02-10T17:38:25.955Z,84.03
2018-02-10T17:40:53.415Z,90.60
2018-02-10T17:43:20.910Z,82.80
2018-02-10T17:45:49.886Z,78.93
2018-02-10T17:48:17.384Z,83.22
2018-02-10T17:50:45.620Z,86.37
2018-02-10T17:53:13.103Z,95.85
2018-02-10T17:55:40.574Z,84.62
2018-02-10T17:58:08.803Z,75.70
2018-02-10T18:00:36.260Z,85.03
2018-02-10T18:03:03.725Z,85.80
2018-02-10T18:05:31.184Z,88.68
2018-02-10T18:07:58.648Z,91.65
2018-02-10T18:10:26.116Z,78.55
2018-02-10T18:12:53.587Z,87.18
2018-02-10T18:15:21.049Z,75.95
2018-02-10T18:17:49.296Z,81.05
2018-02-10T18:20:16.756Z,82.60
2018-02-10T18:22:44.208Z,77.87
2018-02-10T18:25:11.726Z,89.68
2018-02-10T18:27:39.188Z,91.68
2018-02-10T18:30:06.656Z,75.97
2018-02-10T18:32:34.137Z,73.65
2018-02-10T18:35:01.701Z,79.22
2018-02-10T18:37:29.252Z,75.30
2018-02-10T18:39:56.824Z,73.72
2018-02-10T18:42:24.367Z,92.30
2018-02-10T18:44:51.933Z,91.53
2018-02-10T18:47:19.477Z,83.18
2018-02-10T18:49:46.932Z,82.18
2018-02-10T18:52:14.405Z,77.05
2018-02-10T18:54:41.864Z,82.37
2018-02-10T18:57:09.328Z,74.10
2018-02-10T18:59:36.790Z,84.07
2018-02-10T19:02:04.284Z,96.97
2018-02-10T19:04:32.013Z,86.00
2018-02-10T19:06:59.552Z,79.28
2018-02-10T19:09:27.025Z,91.12
2018-02-10T19:11:55.396Z,86.28
2018-02-10T19:14:22.876Z,71.95
2018-02-10T19:16:51.127Z,87.03
2018-02-10T19:19:18.649Z,85.97
2018-02-10T19:21:46.852Z,79.07
2018-02-10T19:24:15.823Z,86.30
2018-02-10T19:26:43.281Z,88.05
2018-02-10T19:29:10.760Z,83.62
2018-02-10T19:31:38.224Z,90.85
2018-02-10T19:34:05.688Z,94.82
2018-02-10T19:36:33.908Z,87.35
2018-02-10T19:39:01.424Z,83.68
2018-02-10T19:41:29.652Z,94.18
2018-02-10T19:43:57.112Z,71.62
2018-02-10T19:46:24.693Z,89.55
2018-02-10T19:48:52.260Z,87.43
2018-02-10T19:51:19.720Z,93.22
2018-02-10T19:53:47.180Z,99.45
2018-02-10T19:56:14.735Z,91.40
2018-02-10T19:58:42.300Z,79.40
2018-02-10T20:01:09.841Z,77.10
2018-02-10T20:03:37.296Z,99.47
2018-02-10T20:06:04.759Z,90.90
2018-02-10T20:08:32.236Z,100.07
2018-02-10T20:11:00.492Z,81.12
2018-02-10T20:13:28.065Z,90.18
2018-02-10T20:15:55.622Z,91.32
2018-02-10T20:18:23.171Z,82.75
2018-02-10T20:20:51.400Z,79.22
2018-02-10T20:23:18.956Z,79.75
2018-02-10T20:25:46.477Z,90.93
2018-02-10T20:28:14.016Z,84.10
2018-02-10T20:30:41.501Z,80.97
2018-02-10T20:33:09.732Z,85.60
2018-02-10T20:35:37.201Z,86.87
2018-02-10T20:38:04.664Z,85.03
2018-02-10T20:40:32.129Z,100.30
2018-02-10T20:43:01.119Z,81.68
2018-02-10T20:45:28.564Z,78.12
2018-02-10T20:47:56.900Z,82.80
2018-02-10T20:50:24.400Z,83.45
2018-02-10T20:52:51.862Z,87.82
2018-02-10T20:55:19.333Z,89.53
2018-02-10T20:57:47.561Z,86.05
2018-02-10T21:00:15.037Z,89.03
2018-02-10T21:02:42.497Z,70.72
2018-02-10T21:05:10.061Z,76.50
2018-02-10T21:07:37.536Z,93.32
2018-02-10T21:10:05.788Z,78.57
2018-02-10T21:12:33.357Z,82.82
2018-02-10T21:15:00.836Z,81.65
2018-02-10T21:17:29.057Z,91.00
2018-02-10T21:19:56.524Z,91.90
2018-02-10T21:22:23.984Z,79.15
2018-02-10T21:24:51.445Z,84.25
2018-02-10T21:27:18.912Z,76.20
2018-02-10T21:29:46.468Z,90.97
2018-02-10T21:32:14.089Z,81.65
2018-02-10T21:34:41.544Z,90.68
2018-02-10T21:37:09.017Z,79.53
2018-02-10T21:39:36.480Z,92.57
2018-02-10T21:42:03.937Z,86.22
2018-02-10T21:44:31.475Z,85.72
2018-02-10T21:46:58.973Z,83.30
2018-02-10T21:49:26.438Z,84.90
2018-02-10T21:51:53.894Z,88.45
2018-02-10T21:54:21.432Z,85.20
2018-02-10T21:56:48.889Z,79.57
2018-02-10T21:59:16.348Z,76.50
2018-02-10T22:01:43.828Z,86.20
2018-02-10T22:04:11.376Z,84.57
2018-02-10T22:06:38.940Z,88.40
2018-02-10T22:09:06.397Z,86.50
2018-02-10T22:11:33.949Z,74.60
2018-02-10T22:14:01.417Z,81.50
2018-02-10T22:16:28.880Z,87.03
2018-02-10T22:18:57.136Z,90.45
2018-02-10T22:21:24.592Z,87.28
2018-02-10T22:23:52.151Z,72.78
2018-02-10T22:26:19.713Z,84.35
2018-02-10T22:28:47.188Z,81.80
2018-02-10T22:31:15.424Z,89.05
2018-02-10T22:33:42.884Z,82.85
2018-02-10T22:36:10.340Z,79.22
2018-02-10T22:38:37.810Z,84.43
2018-02-10T22:41:06.043Z,86.18
2018-02-10T22:43:33.517Z,79.78
2018-02-10T22:46:00.990Z,92.50
2018-02-10T22:48:28.444Z,95.20
2018-02-10T22:50:56.007Z,78.62
2018-02-10T22:53:23.576Z,78.03
2018-02-10T22:55:51.036Z,95.60
2018-02-10T22:58:18.597Z,87.30
2018-02-10T23:00:46.152Z,91.55
2018-02-10T23:03:13.608Z,83.95
2018-02-10T23:05:42.588Z,77.70
2018-02-10T23:08:10.056Z,91.20
2018-02-10T23:10:37.674Z,78.57
2018-02-10T23:13:05.128Z,92.90
2018-02-10T23:15:32.638Z,92.75
2018-02-10T23:18:00.101Z,88.40
2018-02-10T23:20:27.555Z,86.22
2018-02-10T23:22:55.100Z,91.60
2018-02-10T23:25:22.668Z,81.60
2018-02-10T23:27:50.212Z,96.97
2018-02-10T23:30:17.775Z,100.20
2018-02-10T23:32:45.335Z,86.05
2018-02-10T23:35:12.896Z,87.00
2018-02-10T23:37:40.453Z,86.30
2018-02-10T23:40:08.021Z,87.75
2018-02-10T23:42:35.583Z,75.18
2018-02-10T23:45:03.133Z,84.82
2018-02-10T23:47:30.600Z,77.55
2018-02-10T23:49:58.061Z,79.68
2018-02-10T23:52:25.607Z,96.60
2018-02-10T23:54:53.167Z,96.65
2018-02-10T23:57:20.626Z,87.57
2018-02-10T23:59:48.112Z,81.68
